createdAt,value
2018-07-13T00:02:06.013Z,101373.38
2018-07-13T00:04:34.216Z,101376.91
2018-07-13T00:07:02.461Z,101371.47
2018-07-13T00:09:30.700Z,101373.92
2018-07-13T00:11:58.922Z,101378.25
2018-07-13T00:14:27.192Z,101369.53
2018-07-13T00:16:56.553Z,101366.57
2018-07-13T00:19:25.414Z,101367.11
2018-07-13T00:21:53.789Z,101368.72
2018-07-13T00:24:22.054Z,101371.48
2018-07-13T00:26:50.276Z,101369.30
2018-07-13T00:29:18.546Z,101366.85
2018-07-13T00:31:46.816Z,101366.61
2018-07-13T00:34:15.093Z,101368.50
2018-07-13T00:36:43.316Z,101372.56
2018-07-13T00:39:13.039Z,101367.70
2018-07-13T00:41:41.268Z,101364.41
2018-07-13T00:44:09.850Z,101366.03
2018-07-13T00:46:38.106Z,101370.06
2018-07-13T00:49:06.409Z,101359.78
2018-07-13T00:51:34.623Z,101358.72
2018-07-13T00:54:02.843Z,101359.47
2018-07-13T00:56:31.108Z,101364.09
2018-07-13T00:58:59.415Z,101357.58
2018-07-13T01:01:27.787Z,101360.30
2018-07-13T01:03:55.999Z,101353.25
2018-07-13T01:06:24.282Z,101358.98
2018-07-13T01:08:52.511Z,101364.38
2018-07-13T01:11:20.820Z,101362.16
2018-07-13T01:13:49.038Z,101360.57
2018-07-13T01:16:17.314Z,101371.92
2018-07-13T01:18:45.550Z,101373.86
2018-07-13T01:21:13.825Z,101378.72
2018-07-13T01:23:42.051Z,101376.61
2018-07-13T01:26:10.309Z,101372.27
2018-07-13T01:28:39.082Z,101376.81
2018-07-13T01:31:07.365Z,101369.21
2018-07-13T01:33:35.833Z,101368.98
2018-07-13T01:36:04.093Z,101377.67
2018-07-13T01:38:32.289Z,101379.06
2018-07-13T01:41:00.556Z,101377.09
2018-07-13T01:43:28.794Z,101377.15
2018-07-13T01:45:57.060Z,101373.06
2018-07-13T01:48:25.425Z,101376.85
2018-07-13T01:50:53.656Z,101375.71
2018-07-13T01:53:21.879Z,101375.17
2018-07-13T01:55:50.882Z,101381.21
2018-07-13T01:58:19.304Z,101380.92
2018-07-13T02:00:47.584Z,101384.16
2018-07-13T02:03:15.901Z,101375.44
2018-07-13T02:05:44.122Z,101380.11
2018-07-13T02:08:12.407Z,101373.58
2018-07-13T02:10:40.624Z,101372.48
2018-07-13T02:13:08.829Z,101374.39
2018-07-13T02:15:37.117Z,101371.70
2018-07-13T02:18:05.609Z,101379.31
2018-07-13T02:20:33.794Z,101373.75
2018-07-13T02:23:02.019Z,101380.59
2018-07-13T02:25:30.260Z,101380.27
2018-07-13T02:27:58.544Z,101380.62
2018-07-13T02:30:26.744Z,101378.67
2018-07-13T02:32:54.985Z,101383.86
2018-07-13T02:35:23.220Z,101380.80
2018-07-13T02:37:51.495Z,101388.64
2018-07-13T02:40:19.712Z,101388.21
2018-07-13T02:42:47.933Z,101388.25
2018-07-13T02:45:16.190Z,101390.16
2018-07-13T02:47:44.439Z,101388.84
2018-07-13T02:50:12.727Z,101394.95
2018-07-13T02:52:40.942Z,101395.20
2018-07-13T02:55:09.208Z,101403.96
2018-07-13T02:57:37.414Z,101402.58
2018-07-13T03:00:06.074Z,101399.61
2018-07-13T03:02:34.272Z,101404.13
2018-07-13T03:05:02.470Z,101417.41
2018-07-13T03:07:30.744Z,101410.16
2018-07-13T03:09:58.943Z,101411.52
2018-07-13T03:12:27.210Z,101415.03
2018-07-13T03:14:55.411Z,101420.17
2018-07-13T03:17:23.653Z,101410.14
2018-07-13T03:19:51.870Z,101414.45
2018-07-13T03:22:20.088Z,101414.57
2018-07-13T03:24:48.384Z,101412.98
2018-07-13T03:27:16.695Z,101422.09
2018-07-13T03:29:44.994Z,101416.70
2018-07-13T03:32:13.189Z,101413.20
2018-07-13T03:34:42.604Z,101408.17
2018-07-13T03:37:10.869Z,101412.84
2018-07-13T03:39:39.275Z,101413.92
2018-07-13T03:42:07.657Z,101413.69
2018-07-13T03:44:35.871Z,101410.11
2018-07-13T03:47:04.128Z,101407.76
2018-07-13T03:49:32.351Z,101416.42
2018-07-13T03:52:00.614Z,101418.80
2018-07-13T03:54:28.842Z,101419.97
2018-07-13T03:56:57.146Z,101420.97
2018-07-13T03:59:25.518Z,101416.39
2018-07-13T04:01:53.720Z,101414.20
2018-07-13T04:04:21.958Z,101420.64
2018-07-13T04:06:50.200Z,101417.75
2018-07-13T04:09:18.434Z,101429.68
2018-07-13T04:11:46.641Z,101430.97
2018-07-13T04:14:14.874Z,101425.12
2018-07-13T04:16:43.119Z,101425.58
2018-07-13T04:19:11.379Z,101428.34
2018-07-13T04:21:39.577Z,101423.23
2018-07-13T04:24:07.947Z,101434.30
2018-07-13T04:26:36.308Z,101430.86
2018-07-13T04:29:04.551Z,101431.16
2018-07-13T04:31:32.825Z,101430.87
2018-07-13T04:34:01.006Z,101434.02
2018-07-13T04:36:29.257Z,101433.16
2018-07-13T04:38:57.457Z,101434.56
2018-07-13T04:41:25.681Z,101431.27
2018-07-13T04:43:53.878Z,101430.23
2018-07-13T04:46:22.504Z,101436.13
2018-07-13T04:48:50.736Z,101438.06
2018-07-13T04:51:18.947Z,101439.12
2018-07-13T04:53:47.182Z,101437.80
2018-07-13T04:56:15.400Z,101441.29
2018-07-13T04:58:43.658Z,101437.55
2018-07-13T05:01:11.860Z,101439.95
2018-07-13T05:03:40.106Z,101446.51
2018-07-13T05:06:08.372Z,101444.84
2018-07-13T05:08:37.443Z,101450.33
2018-07-13T05:11:05.665Z,101453.48
2018-07-13T05:13:33.943Z,101451.01
2018-07-13T05:16:02.215Z,101454.91
2018-07-13T05:18:30.495Z,101452.70
2018-07-13T05:20:58.845Z,101455.16
2018-07-13T05:23:27.220Z,101455.45
2018-07-13T05:25:55.509Z,101462.49
2018-07-13T05:28:23.732Z,101456.53
2018-07-13T05:30:52.050Z,101467.06
2018-07-13T05:33:20.261Z,101468.79
2018-07-13T05:35:48.507Z,101469.09
2018-07-13T05:38:16.775Z,101469.09
2018-07-13T05:40:45.008Z,101466.08
2018-07-13T05:43:13.268Z,101461.20
2018-07-13T05:45:41.529Z,101468.52
2018-07-13T05:48:09.914Z,101471.22
2018-07-13T05:50:38.231Z,101471.25
2018-07-13T05:53:06.497Z,101471.03
2018-07-13T05:55:34.847Z,101475.70
2018-07-13T05:58:03.315Z,101472.98
2018-07-13T06:00:31.584Z,101471.06
2018-07-13T06:02:59.809Z,101474.33
2018-07-13T06:05:28.059Z,101474.06
2018-07-13T06:07:56.299Z,101469.21
2018-07-13T06:10:24.498Z,101470.28
2018-07-13T06:12:52.776Z,101475.20
2018-07-13T06:15:21.000Z,101468.98
2018-07-13T06:17:49.204Z,101471.37
2018-07-13T06:20:17.454Z,101480.03
2018-07-13T06:22:45.660Z,101483.05
2018-07-13T06:25:13.994Z,101476.81
2018-07-13T06:27:42.268Z,101476.22
2018-07-13T06:30:10.467Z,101479.59
2018-07-13T06:32:38.693Z,101480.41
2018-07-13T06:35:06.954Z,101482.78
2018-07-13T06:37:35.243Z,101484.16
2018-07-13T06:40:03.518Z,101493.61
2018-07-13T06:42:31.741Z,101490.05
2018-07-13T06:45:00.179Z,101487.36
2018-07-13T06:47:28.592Z,101492.09
2018-07-13T06:49:56.849Z,101486.88
2018-07-13T06:52:25.134Z,101479.83
2018-07-13T06:54:53.408Z,101487.16
2018-07-13T06:57:32.978Z,101488.50
2018-07-13T07:00:03.094Z,101488.82
2018-07-13T07:02:40.807Z,101494.18
2018-07-13T07:06:22.252Z,101498.28
2018-07-13T07:08:51.027Z,101499.39
2018-07-13T07:11:19.416Z,101498.39
2018-07-13T07:13:48.088Z,101499.17
2018-07-13T07:16:16.366Z,101500.00
2018-07-13T07:18:44.616Z,101508.63
2018-07-13T07:21:12.868Z,101505.95
2018-07-13T07:23:41.140Z,101505.18
2018-07-13T07:26:09.461Z,101506.27
2018-07-13T07:28:37.723Z,101507.06
2018-07-13T07:31:06.033Z,101510.03
2018-07-13T07:33:34.268Z,101515.25
2018-07-13T07:36:02.540Z,101517.68
2018-07-13T07:38:30.766Z,101514.59
2018-07-13T07:40:58.961Z,101509.83
2018-07-13T07:43:27.222Z,101509.88
2018-07-13T07:45:55.479Z,101508.20
2018-07-13T07:48:23.759Z,101514.51
2018-07-13T07:50:52.007Z,101511.27
2018-07-13T07:53:20.325Z,101513.96
2018-07-13T07:55:48.529Z,101515.05
2018-07-13T07:58:16.877Z,101513.96
2018-07-13T08:00:45.144Z,101519.99
2018-07-13T08:03:13.502Z,101519.93
2018-07-13T08:05:41.724Z,101519.67
2018-07-13T08:08:10.019Z,101522.15
2018-07-13T08:10:38.273Z,101523.80
2018-07-13T08:13:06.732Z,101520.02
2018-07-13T08:15:34.986Z,101514.55
2018-07-13T08:18:03.408Z,101517.55
2018-07-13T08:20:33.903Z,101521.08
2018-07-13T08:23:05.698Z,101523.27
2018-07-13T08:25:34.786Z,101522.73
2018-07-13T08:28:03.878Z,101520.00
2018-07-13T08:30:38.346Z,101525.72
2018-07-13T08:33:06.679Z,101513.22
2018-07-13T08:35:35.117Z,101520.02
2018-07-13T08:38:03.335Z,101523.55
2018-07-13T08:40:31.609Z,101529.82
2018-07-13T08:42:59.855Z,101526.00
2018-07-13T08:45:28.101Z,101534.73
2018-07-13T08:47:56.315Z,101532.81
2018-07-13T08:50:24.542Z,101531.97
2018-07-13T08:52:52.870Z,101532.80
2018-07-13T08:55:21.102Z,101535.53
2018-07-13T08:57:49.995Z,101539.88
2018-07-13T09:00:18.205Z,101541.53
2018-07-13T09:02:46.558Z,101539.34
2018-07-13T09:05:14.745Z,101538.52
2018-07-13T09:07:43.106Z,101529.30
2018-07-13T09:10:12.448Z,101534.19
2018-07-13T09:12:41.710Z,101541.28
2018-07-13T09:15:11.251Z,101546.16
2018-07-13T09:17:39.452Z,101538.02
2018-07-13T09:20:09.244Z,101544.28
2018-07-13T09:22:37.443Z,101539.09
2018-07-13T09:25:05.678Z,101551.33
2018-07-13T09:27:33.929Z,101551.87
2018-07-13T09:30:02.166Z,101548.08
2018-07-13T09:32:30.412Z,101548.87
2018-07-13T09:34:58.655Z,101556.52
2018-07-13T09:37:26.939Z,101554.05
2018-07-13T09:39:55.186Z,101549.92
2018-07-13T09:42:23.499Z,101554.30
2018-07-13T09:44:51.723Z,101556.25
2018-07-13T09:47:19.928Z,101552.40
2018-07-13T09:49:48.147Z,101549.12
2018-07-13T09:52:16.360Z,101563.00
2018-07-13T09:54:44.595Z,101560.54
2018-07-13T09:57:12.836Z,101570.35
2018-07-13T09:59:41.180Z,101565.13
2018-07-13T10:02:09.400Z,101568.70
2018-07-13T10:04:37.644Z,101563.80
2018-07-13T10:07:06.393Z,101567.83
2018-07-13T10:09:34.636Z,101564.08
2018-07-13T10:12:02.907Z,101573.31
2018-07-13T10:14:31.131Z,101572.27
2018-07-13T10:16:59.347Z,101571.14
2018-07-13T10:19:27.545Z,101571.69
2018-07-13T10:21:55.806Z,101571.70
2018-07-13T10:24:24.046Z,101572.58
2018-07-13T10:26:52.661Z,101570.89
2018-07-13T10:29:24.619Z,101567.87
2018-07-13T10:31:53.006Z,101568.13
2018-07-13T10:34:21.556Z,101566.11
2018-07-13T10:36:54.803Z,101563.45
2018-07-13T10:39:23.031Z,101568.61
2018-07-13T10:41:51.520Z,101566.06
2018-07-13T10:44:19.750Z,101568.55
2018-07-13T10:46:47.974Z,101564.92
2018-07-13T10:49:16.930Z,101564.17
2018-07-13T10:51:45.139Z,101571.72
2018-07-13T10:54:13.404Z,101561.30
2018-07-13T10:56:41.620Z,101572.75
2018-07-13T10:59:09.856Z,101565.37
2018-07-13T11:01:38.080Z,101564.20
2018-07-13T11:04:06.343Z,101568.95
2018-07-13T11:06:34.561Z,101563.94
2018-07-13T11:09:03.144Z,101566.23
2018-07-13T11:11:31.340Z,101566.85
2018-07-13T11:13:59.577Z,101559.34
2018-07-13T11:16:27.794Z,101550.56
2018-07-13T11:18:56.627Z,101551.33
2018-07-13T11:21:24.874Z,101545.58
2018-07-13T11:23:53.144Z,101545.91
2018-07-13T11:26:21.511Z,101543.44
2018-07-13T11:28:49.852Z,101546.38
2018-07-13T11:31:18.077Z,101551.27
2018-07-13T11:33:46.352Z,101543.36
2018-07-13T11:36:14.559Z,101547.70
2018-07-13T11:38:42.834Z,101544.54
2018-07-13T11:41:11.083Z,101547.03
2018-07-13T11:43:39.298Z,101542.16
2018-07-13T11:46:07.487Z,101544.64
2018-07-13T11:48:35.721Z,101553.70
2018-07-13T11:51:03.953Z,101541.94
2018-07-13T11:53:32.724Z,101541.98
2018-07-13T11:56:01.122Z,101553.68
2018-07-13T11:58:29.475Z,101546.73
2018-07-13T12:00:57.779Z,101547.89
2018-07-13T12:03:25.999Z,101542.34
2018-07-13T12:05:54.295Z,101543.10
2018-07-13T12:08:22.609Z,101541.53
2018-07-13T12:10:51.190Z,101539.44
2018-07-13T12:13:19.411Z,101527.02
2018-07-13T12:15:48.455Z,101534.23
2018-07-13T12:18:16.644Z,101536.27
2018-07-13T12:20:44.906Z,101533.79
2018-07-13T12:23:13.228Z,101536.75
2018-07-13T12:25:41.441Z,101539.44
2018-07-13T12:28:09.642Z,101539.44
2018-07-13T12:30:37.877Z,101530.66
2018-07-13T12:33:06.159Z,101536.73
2018-07-13T12:35:34.345Z,101536.64
2018-07-13T12:38:02.584Z,101541.49
2018-07-13T12:40:30.840Z,101540.80
2018-07-13T12:42:59.101Z,101533.30
2018-07-13T12:45:27.386Z,101536.90
2018-07-13T12:47:55.601Z,101527.27
2018-07-13T12:50:23.942Z,101523.31
2018-07-13T12:52:52.149Z,101527.99
2018-07-13T12:55:20.437Z,101520.88
2018-07-13T12:57:48.739Z,101518.93
2018-07-13T13:00:16.972Z,101527.08
2018-07-13T13:02:45.208Z,101520.53
2018-07-13T13:05:13.465Z,101519.23
2018-07-13T13:07:41.716Z,101524.05
2018-07-13T13:10:10.039Z,101515.08
2018-07-13T13:12:38.374Z,101510.52
2018-07-13T13:15:07.124Z,101507.45
2018-07-13T13:17:35.507Z,101511.73
2018-07-13T13:20:03.834Z,101512.34
2018-07-13T13:22:32.098Z,101504.59
2018-07-13T13:25:00.398Z,101507.91
2018-07-13T13:27:28.676Z,101499.61
2018-07-13T13:29:57.043Z,101508.17
2018-07-13T13:32:25.999Z,101512.65
2018-07-13T13:34:54.249Z,101510.24
2018-07-13T13:37:22.510Z,101503.76
2018-07-13T13:39:50.747Z,101499.62
2018-07-13T13:42:19.028Z,101499.09
2018-07-13T13:44:47.518Z,101507.55
2018-07-13T13:47:16.029Z,101498.03
2018-07-13T13:49:44.518Z,101502.10
2018-07-13T13:52:12.855Z,101502.06
2018-07-13T13:54:41.217Z,101495.77
2018-07-13T13:57:09.437Z,101494.17
2018-07-13T13:59:37.755Z,101504.23
2018-07-13T14:02:06.084Z,101498.37
2018-07-13T14:04:34.351Z,101494.27
2018-07-13T14:07:02.582Z,101496.08
2018-07-13T14:09:30.846Z,101493.64
2018-07-13T14:11:59.163Z,101482.87
2018-07-13T14:14:27.353Z,101480.44
2018-07-13T14:16:55.649Z,101479.56
2018-07-13T14:19:23.913Z,101481.25
2018-07-13T14:21:52.123Z,101483.12
2018-07-13T14:24:20.491Z,101478.33
2018-07-13T14:26:48.797Z,101474.84
2018-07-13T14:29:17.062Z,101477.59
2018-07-13T14:31:45.353Z,101480.75
2018-07-13T14:34:13.620Z,101470.34
2018-07-13T14:36:41.847Z,101474.80
2018-07-13T14:39:10.877Z,101469.27
2018-07-13T14:41:39.211Z,101463.38
2018-07-13T14:44:07.491Z,101457.37
2018-07-13T14:46:35.822Z,101462.67
2018-07-13T14:49:04.058Z,101463.44
2018-07-13T14:51:32.285Z,101466.38
2018-07-13T14:54:00.684Z,101470.53
2018-07-13T14:56:28.907Z,101466.77
2018-07-13T14:58:57.448Z,101462.63
2018-07-13T15:01:25.673Z,101465.91
2018-07-13T15:03:54.008Z,101464.78
2018-07-13T15:06:22.377Z,101455.88
2018-07-13T15:08:50.994Z,101459.68
2018-07-13T15:11:19.227Z,101455.60
2018-07-13T15:13:47.531Z,101458.30
2018-07-13T15:16:15.787Z,101458.10
2018-07-13T15:18:44.047Z,101457.59
2018-07-13T15:21:12.321Z,101452.83
2018-07-13T15:23:40.598Z,101455.13
2018-07-13T15:26:09.091Z,101454.88
2018-07-13T15:28:37.372Z,101449.02
2018-07-13T15:31:05.635Z,101452.19
2018-07-13T15:33:33.889Z,101457.91
2018-07-13T15:36:02.156Z,101461.80
2018-07-13T15:38:30.418Z,101462.67
2018-07-13T15:40:58.704Z,101470.34
2018-07-13T15:43:27.524Z,101456.42
2018-07-13T15:45:55.668Z,101466.75
2018-07-13T15:48:23.919Z,101460.63
2018-07-13T15:50:52.225Z,101457.95
2018-07-13T15:53:20.588Z,101467.96
2018-07-13T15:59:37.255Z,101479.54
2018-07-13T16:02:05.686Z,101466.03
2018-07-13T16:04:33.949Z,101467.13
2018-07-13T16:07:02.495Z,101465.70
2018-07-13T16:09:30.832Z,101479.73
2018-07-13T16:11:59.219Z,101454.03
2018-07-13T16:14:27.452Z,101461.19
2018-07-13T16:16:55.829Z,101457.95
2018-07-13T16:19:24.094Z,101465.81
2018-07-13T16:21:52.373Z,101457.63
2018-07-13T16:24:20.617Z,101452.45
2018-07-13T16:26:48.841Z,101456.58
2018-07-13T16:29:17.160Z,101458.80
2018-07-13T16:31:45.493Z,101455.60
2018-07-13T16:34:13.858Z,101460.65
2018-07-13T16:36:42.121Z,101451.20
2018-07-13T16:39:10.346Z,101453.06
2018-07-13T16:41:38.576Z,101456.78
2018-07-13T16:44:06.807Z,101456.41
2018-07-13T16:46:35.015Z,101460.55
2018-07-13T16:49:03.422Z,101465.78
2018-07-13T16:51:31.659Z,101463.44
2018-07-13T16:53:59.972Z,101469.22
2018-07-13T16:56:28.300Z,101458.56
2018-07-13T16:58:56.665Z,101458.70
2018-07-13T17:01:24.942Z,101459.09
2018-07-13T17:03:53.273Z,101468.97
2018-07-13T17:06:21.574Z,101465.68
2018-07-13T17:08:49.890Z,101467.41
2018-07-13T17:11:18.246Z,101466.23
2018-07-13T17:13:46.488Z,101471.52
2018-07-13T17:16:14.860Z,101474.41
2018-07-13T17:18:43.194Z,101469.31
2018-07-13T17:21:11.522Z,101476.12
2018-07-13T17:23:39.811Z,101478.22
2018-07-13T17:26:08.473Z,101478.95
2018-07-13T17:28:36.785Z,101476.59
2018-07-13T17:31:05.015Z,101487.21
2018-07-13T17:33:33.690Z,101478.38
2018-07-13T17:36:01.958Z,101485.27
2018-07-13T17:38:30.197Z,101497.95
2018-07-13T17:40:58.466Z,101483.11
2018-07-13T17:43:26.743Z,101490.78
2018-07-13T17:45:54.999Z,101488.22
2018-07-13T17:48:23.286Z,101490.08
2018-07-13T17:50:52.164Z,101502.20
2018-07-13T17:53:20.496Z,101495.80
2018-07-13T17:55:48.757Z,101491.64
2018-07-13T17:58:17.139Z,101511.27
2018-07-13T18:00:45.479Z,101501.05
2018-07-13T18:03:13.762Z,101499.94
2018-07-13T18:05:42.070Z,101502.67
2018-07-13T18:08:10.356Z,101509.91
2018-07-13T18:10:38.765Z,101510.22
2018-07-13T18:13:07.162Z,101510.05
2018-07-13T18:15:35.456Z,101512.57
2018-07-13T18:20:31.750Z,101514.35
2018-07-13T18:23:00.028Z,101521.63
2018-07-13T18:25:28.490Z,101512.98
2018-07-13T18:27:56.837Z,101517.34
2018-07-13T18:30:25.380Z,101521.21
2018-07-13T18:32:53.733Z,101520.92
2018-07-13T18:35:22.016Z,101525.61
2018-07-13T18:37:50.262Z,101528.84
2018-07-13T18:40:18.569Z,101540.27
2018-07-13T18:42:46.869Z,101535.23
2018-07-13T18:45:15.262Z,101543.33
2018-07-13T18:47:43.542Z,101550.45
2018-07-13T18:50:11.783Z,101546.11
2018-07-13T18:52:40.060Z,101553.38
2018-07-13T18:55:08.363Z,101554.14
2018-07-13T18:57:36.657Z,101558.77
2018-07-13T19:00:05.117Z,101555.37
2018-07-13T19:02:33.399Z,101551.74
2018-07-13T19:05:01.753Z,101558.11
2018-07-13T19:07:30.167Z,101550.48
2018-07-13T19:09:58.417Z,101558.11
2018-07-13T19:12:26.627Z,101558.94
2018-07-13T19:14:54.900Z,101562.91
2018-07-13T19:17:23.164Z,101554.41
2018-07-13T19:19:51.732Z,101570.42
2018-07-13T19:22:20.012Z,101565.48
2018-07-13T19:24:48.488Z,101572.42
2018-07-13T19:27:16.836Z,101575.14
2018-07-13T19:29:45.183Z,101572.37
2018-07-13T19:32:13.457Z,101570.94
2018-07-13T19:34:41.750Z,101574.62
2018-07-13T19:37:10.027Z,101584.28
2018-07-13T19:39:38.267Z,101580.45
2018-07-13T19:42:06.498Z,101579.00
2018-07-13T19:44:34.800Z,101577.91
2018-07-13T19:47:03.088Z,101581.17
2018-07-13T19:49:31.373Z,101583.77
2018-07-13T19:51:59.651Z,101586.14
2018-07-13T19:54:28.061Z,101586.79
2018-07-13T19:56:56.352Z,101592.66
2018-07-13T19:59:24.613Z,101598.11
2018-07-13T20:01:52.901Z,101596.77
2018-07-13T20:04:21.150Z,101596.77
2018-07-13T20:06:49.400Z,101598.91
2018-07-13T20:09:17.838Z,101603.61
2018-07-13T20:11:46.215Z,101601.98
2018-07-13T20:14:14.577Z,101598.94
2018-07-13T20:16:42.892Z,101610.43
2018-07-13T20:19:11.137Z,101600.28
2018-07-13T20:21:39.447Z,101602.26
2018-07-13T20:24:07.685Z,101604.19
2018-07-13T20:26:36.019Z,101595.43
2018-07-13T20:29:04.249Z,101591.85
2018-07-13T20:31:32.520Z,101603.36
2018-07-13T20:34:00.824Z,101603.34
2018-07-13T20:36:29.169Z,101602.25
2018-07-13T20:38:57.522Z,101602.23
2018-07-13T20:41:25.860Z,101603.06
2018-07-13T20:43:54.165Z,101604.70
2018-07-13T20:46:22.531Z,101610.72
2018-07-13T20:48:50.843Z,101605.21
2018-07-13T20:51:19.147Z,101603.80
2018-07-13T20:53:47.416Z,101609.66
2018-07-13T20:56:15.832Z,101613.08
2018-07-13T20:58:44.083Z,101617.12
2018-07-13T21:01:12.389Z,101624.26
2018-07-13T21:03:40.617Z,101623.72
2018-07-13T21:06:08.939Z,101623.14
2018-07-13T21:08:37.175Z,101626.44
2018-07-13T21:11:05.493Z,101618.52
2018-07-13T21:13:33.774Z,101615.82
2018-07-13T21:16:02.000Z,101616.06
2018-07-13T21:18:30.320Z,101611.99
2018-07-13T21:20:58.624Z,101619.09
2018-07-13T21:23:27.064Z,101622.81
2018-07-13T21:25:55.320Z,101621.47
2018-07-13T21:28:23.820Z,101621.38
2018-07-13T21:30:52.114Z,101621.25
2018-07-13T21:33:20.369Z,101611.20
2018-07-13T21:35:48.607Z,101617.39
2018-07-13T21:38:16.802Z,101607.11
2018-07-13T21:40:45.105Z,101609.23
2018-07-13T21:43:13.425Z,101608.98
2018-07-13T21:45:43.529Z,101610.84
2018-07-13T21:48:11.897Z,101613.55
2018-07-13T21:50:40.190Z,101614.06
2018-07-13T21:53:08.536Z,101618.47
2018-07-13T21:55:36.787Z,101613.84
2018-07-13T21:58:05.277Z,101612.19
2018-07-13T22:00:33.568Z,101615.39
2018-07-13T22:03:01.852Z,101606.70
2018-07-13T22:05:30.114Z,101613.25
2018-07-13T22:07:58.381Z,101616.81
2018-07-13T22:10:26.602Z,101619.98
2018-07-13T22:12:54.842Z,101624.93
2018-07-13T22:15:23.112Z,101624.70
2018-07-13T22:17:51.573Z,101624.34
2018-07-13T22:20:19.977Z,101621.54
2018-07-13T22:22:48.252Z,101630.77
2018-07-13T22:25:18.887Z,101628.04
2018-07-13T22:27:50.796Z,101624.44
2018-07-13T22:30:21.481Z,101620.97
2018-07-13T22:32:55.440Z,101623.33
2018-07-13T22:35:25.019Z,101630.55
2018-07-13T22:37:55.954Z,101622.72
2018-07-13T22:40:24.285Z,101625.52
2018-07-13T22:42:52.663Z,101625.84
2018-07-13T22:45:20.956Z,101628.00
2018-07-13T22:47:49.182Z,101625.50
2018-07-13T22:50:17.447Z,101627.27
2018-07-13T22:52:45.896Z,101631.31
2018-07-13T22:55:14.224Z,101632.01
2018-07-13T22:57:42.401Z,101629.32
2018-07-13T23:00:10.796Z,101627.25
2018-07-13T23:02:39.076Z,101635.52
2018-07-13T23:05:07.796Z,101629.28
2018-07-13T23:07:36.055Z,101632.98
2018-07-13T23:10:04.331Z,101636.45
2018-07-13T23:12:32.576Z,101636.61
2018-07-13T23:15:01.192Z,101640.61
2018-07-13T23:17:29.566Z,101631.98
2018-07-13T23:19:57.811Z,101637.88
2018-07-13T23:22:26.054Z,101634.28
2018-07-13T23:24:54.271Z,101633.72
2018-07-13T23:27:23.352Z,101635.14
2018-07-13T23:29:51.552Z,101641.11
2018-07-13T23:32:19.783Z,101634.46
2018-07-13T23:34:48.014Z,101637.63
2018-07-13T23:37:16.286Z,101627.96
2018-07-13T23:39:44.528Z,101630.09
2018-07-13T23:42:12.798Z,101626.41
2018-07-13T23:44:41.043Z,101631.48
2018-07-13T23:47:09.256Z,101632.16
2018-07-13T23:49:37.518Z,101638.80
2018-07-13T23:52:05.751Z,101634.16
2018-07-13T23:54:33.993Z,101630.95
2018-07-13T23:57:02.237Z,101627.20
2018-07-13T23:59:31.220Z,101627.77
